Long Creek, North Carolina
Current Conditions -  °F | °C
As of 4:35 AM on Thursday 27 Nov 2014 (Local Time) from KJQF Reporting Station
Overcast Overcast  
Wind Chill: 37°   Ceiling: 7500
Heat Index: 37°   Visibility: 10mi
Dew Point: 36°   Wind: 3mph
Humidity: 93%   Direction: 350°N
Pressure: 30"   Gusts: NA
Location:  35.4129°N, 80.8607°W
Report Text: KJQF 270935Z AUTO 35003KT 10SM BKN075 OVC095 03/02 A3000 RMK AO2
Loading
Personal Weather Stations






























Interactive Weather Map New forecast layout! Learn more

10-Day Weather Forecast

Advertisements
Track Severe Weather on mobile